Time;durP1;ratioP1;P1;durP2;ratioP2;P2;SDS_P1;SDS_P2;PMS_P1;PMS_P2;Temp;Humidity;BMP_temperature;BMP_pressure;BME280_temperature;BME280_humidity;BME280_pressure;Samples;Min_cycle;Max_cycle;Signal;HPM_P1;HPM_P2
2021/12/04 00:01:10;;;;;;;25.33;11.63;;;4.50;99.90;;;;;;4975439;28;20042;-86
2021/12/04 00:03:40;;;;;;;25.48;11.35;;;4.50;99.90;;;;;;4961097;28;20114;-86
2021/12/04 00:06:13;;;;;;;24.60;12.05;;;4.50;99.90;;;;;;4959124;28;20049;-86
2021/12/04 00:08:43;;;;;;;23.90;11.18;;;4.50;99.90;;;;;;4955313;28;20062;-86
2021/12/04 00:11:09;;;;;;;23.27;11.18;;;4.50;99.90;;;;;;4951572;28;20034;-86
2021/12/04 00:13:34;;;;;;;22.27;10.35;;;4.50;99.90;;;;;;4955471;28;20096;-86
2021/12/04 00:16:00;;;;;;;23.05;10.50;;;4.50;99.90;;;;;;4980696;28;20027;-86
2021/12/04 00:18:26;;;;;;;23.85;11.85;;;4.50;99.90;;;;;;4982099;28;20043;-86
2021/12/04 00:20:51;;;;;;;22.02;10.80;;;4.50;99.90;;;;;;4954124;28;20069;-86
2021/12/04 00:23:17;;;;;;;23.55;10.88;;;4.50;99.90;;;;;;4962227;28;20045;-86
2021/12/04 00:25:43;;;;;;;20.25;10.57;;;4.50;99.90;;;;;;4956897;28;20053;-86
2021/12/04 00:28:08;;;;;;;23.70;11.45;;;4.50;99.90;;;;;;4968230;28;20034;-87
2021/12/04 00:30:34;;;;;;;21.50;10.73;;;4.50;99.90;;;;;;4962262;28;20550;-86
2021/12/04 00:33:09;;;;;;;20.27;9.55;;;4.50;99.90;;;;;;4959059;28;20049;-86
2021/12/04 00:35:44;;;;;;;22.02;10.32;;;4.60;99.90;;;;;;4953781;28;20046;-86
2021/12/04 00:51:45;;;;;;;20.15;10.30;;;4.50;99.90;;;;;;4969235;28;20045;-86
2021/12/04 00:54:12;;;;;;;18.65;9.27;;;4.50;99.90;;;;;;4948820;28;20022;-86
2021/12/04 00:56:40;;;;;;;19.58;9.30;;;4.50;99.90;;;;;;4953585;28;20082;-86
2021/12/04 00:59:06;;;;;;;17.35;9.60;;;4.50;99.90;;;;;;4952426;28;20039;-86
2021/12/04 01:01:32;;;;;;;16.33;8.77;;;4.50;99.90;;;;;;4970112;28;20043;-86
2021/12/04 01:03:58;;;;;;;19.02;9.50;;;4.50;99.90;;;;;;4969114;28;20038;-86
2021/12/04 01:06:23;;;;;;;15.35;8.43;;;4.50;99.90;;;;;;4954314;28;20807;-86
2021/12/04 01:08:49;;;;;;;17.35;9.68;;;4.50;99.90;;;;;;4947285;28;20424;-86
2021/12/04 01:11:16;;;;;;;14.27;7.63;;;4.50;99.90;;;;;;4954457;28;20056;-86
2021/12/04 01:13:41;;;;;;;15.02;7.53;;;4.50;99.90;;;;;;4955463;28;20031;-86
2021/12/04 01:16:07;;;;;;;15.48;8.48;;;4.50;99.90;;;;;;4954889;28;20061;-86
2021/12/04 01:18:33;;;;;;;12.23;7.50;;;4.50;99.90;;;;;;4952882;28;20511;-86
2021/12/04 01:20:59;;;;;;;15.05;8.60;;;4.50;99.90;;;;;;4955539;28;20034;-86
2021/12/04 01:23:24;;;;;;;13.70;7.40;;;4.50;99.90;;;;;;4957276;28;20046;-86
2021/12/04 01:25:50;;;;;;;11.70;7.13;;;4.50;99.90;;;;;;4951501;28;20046;-86
2021/12/04 01:28:16;;;;;;;11.65;7.15;;;4.50;99.90;;;;;;4973273;28;20499;-86
2021/12/04 01:30:41;;;;;;;11.63;6.78;;;4.50;99.90;;;;;;4973574;28;20046;-85
2021/12/04 01:33:07;;;;;;;13.32;6.90;;;4.50;99.90;;;;;;4953911;28;20039;-86
2021/12/04 01:35:33;;;;;;;11.88;7.00;;;4.50;99.90;;;;;;4973803;28;20129;-86
2021/12/04 01:37:58;;;;;;;12.65;7.55;;;4.50;99.90;;;;;;4958979;28;20146;-86
2021/12/04 01:40:26;;;;;;;13.05;7.13;;;4.50;99.90;;;;;;4956978;28;20074;-86
2021/12/04 01:42:51;;;;;;;11.65;6.82;;;4.50;99.90;;;;;;4976568;28;20046;-86
2021/12/04 01:45:18;;;;;;;12.18;6.85;;;4.50;99.90;;;;;;4973209;28;20039;-86
2021/12/04 01:47:44;;;;;;;11.48;6.55;;;4.50;99.90;;;;;;4954789;28;20046;-87
2021/12/04 01:50:10;;;;;;;11.77;7.10;;;4.50;99.90;;;;;;4952665;28;20081;-86
2021/12/04 01:52:36;;;;;;;11.27;6.40;;;4.50;99.90;;;;;;4972214;28;20041;-86
2021/12/04 01:55:03;;;;;;;11.50;7.05;;;4.50;99.90;;;;;;4969095;28;20038;-86
2021/12/04 01:57:29;;;;;;;13.15;6.72;;;4.50;99.90;;;;;;4955528;28;20113;-86
2021/12/04 01:59:54;;;;;;;11.98;6.75;;;4.50;99.90;;;;;;4970250;28;20045;-86
2021/12/04 02:02:20;;;;;;;12.38;6.78;;;4.50;99.90;;;;;;4989130;23;20542;-84
2021/12/04 02:04:46;;;;;;;11.60;6.88;;;4.50;99.90;;;;;;4952491;28;20045;-84
2021/12/04 02:07:13;;;;;;;12.05;7.18;;;4.50;99.90;;;;;;4960722;28;20125;-84
2021/12/04 02:09:39;;;;;;;13.48;6.78;;;4.50;99.90;;;;;;4946286;28;20034;-84
2021/12/04 02:12:07;;;;;;;13.13;7.68;;;4.50;99.90;;;;;;4962581;28;20042;-84
2021/12/04 02:14:34;;;;;;;13.38;7.32;;;4.50;99.90;;;;;;4951527;28;20068;-84
2021/12/04 02:17:01;;;;;;;11.95;6.57;;;4.50;99.90;;;;;;4953210;28;20030;-84
2021/12/04 02:19:28;;;;;;;11.30;6.18;;;4.50;99.90;;;;;;4947294;28;20550;-84
2021/12/04 02:21:54;;;;;;;11.23;6.20;;;4.50;99.90;;;;;;4962750;28;20031;-83
2021/12/04 02:24:19;;;;;;;13.70;7.10;;;4.50;99.90;;;;;;4964609;28;20446;-83
2021/12/04 02:26:47;;;;;;;12.02;7.05;;;4.50;99.90;;;;;;4966035;28;20049;-83
2021/12/04 02:29:13;;;;;;;12.50;6.47;;;4.50;99.90;;;;;;4950895;28;20094;-83
2021/12/04 02:31:39;;;;;;;13.02;7.93;;;4.50;99.90;;;;;;4962305;28;20550;-83
2021/12/04 02:34:05;;;;;;;13.40;7.72;;;4.50;99.90;;;;;;4951539;28;20533;-83
2021/12/04 02:36:30;;;;;;;12.63;7.25;;;4.50;99.90;;;;;;4947069;28;20479;-84
2021/12/04 02:38:56;;;;;;;12.07;7.00;;;4.50;99.90;;;;;;4969298;28;20034;-84
2021/12/04 02:41:22;;;;;;;13.18;7.15;;;4.50;99.90;;;;;;4966407;28;20042;-83
2021/12/04 02:43:49;;;;;;;12.52;7.05;;;4.40;99.90;;;;;;4967071;28;20053;-83
2021/12/04 02:46:16;;;;;;;13.95;7.30;;;4.50;99.90;;;;;;4964989;28;20070;-83
2021/12/04 02:48:43;;;;;;;13.50;7.53;;;4.50;99.90;;;;;;4957436;28;20181;-83
2021/12/04 02:51:09;;;;;;;12.40;7.25;;;4.50;99.90;;;;;;4963297;28;20183;-83
2021/12/04 02:53:35;;;;;;;13.88;7.63;;;4.40;99.90;;;;;;4967698;28;20372;-83
2021/12/04 02:56:01;;;;;;;12.10;6.85;;;4.40;99.90;;;;;;4951647;28;20042;-83
2021/12/04 02:58:27;;;;;;;13.02;7.32;;;4.40;99.90;;;;;;4965680;28;20506;-83
2021/12/04 03:00:53;;;;;;;12.48;7.22;;;4.40;99.90;;;;;;4952427;28;20050;-84
2021/12/04 03:03:20;;;;;;;12.18;6.65;;;4.40;99.90;;;;;;4952298;28;20054;-83
2021/12/04 03:05:51;;;;;;;14.02;6.93;;;4.40;99.90;;;;;;4934540;28;21829;-83
2021/12/04 03:08:17;;;;;;;12.10;7.07;;;4.40;99.90;;;;;;4965391;28;20053;-83
2021/12/04 03:10:44;;;;;;;13.15;7.05;;;4.40;99.90;;;;;;4964289;28;20058;-83
2021/12/04 03:13:10;;;;;;;12.80;6.65;;;4.40;99.90;;;;;;4930703;28;20039;-84
2021/12/04 03:15:44;;;;;;;12.57;7.10;;;4.40;99.90;;;;;;4931399;28;20396;-84
2021/12/04 03:18:09;;;;;;;10.60;5.90;;;4.40;99.90;;;;;;4959988;28;20046;-83
2021/12/04 03:20:41;;;;;;;10.07;5.82;;;4.40;99.90;;;;;;4933135;28;21153;-83
2021/12/04 03:23:15;;;;;;;11.88;7.03;;;4.40;99.90;;;;;;4931885;28;20043;-83
2021/12/04 03:25:44;;;;;;;11.23;6.32;;;4.40;99.90;;;;;;4951289;28;20042;-83
2021/12/04 03:28:12;;;;;;;10.60;6.05;;;4.40;99.90;;;;;;4931779;28;20034;-83
2021/12/04 03:31:13;;;;;;;11.60;6.25;;;4.40;99.90;;;;;;4948974;28;20031;-83
2021/12/04 03:41:23;;;;;;;11.95;6.80;;;4.40;99.90;;;;;;4948401;28;20508;-83
2021/12/04 03:43:48;;;;;;;9.57;5.88;;;4.40;99.90;;;;;;4948770;28;20051;-83
2021/12/04 03:46:15;;;;;;;10.57;6.00;;;4.40;99.90;;;;;;4948410;28;20042;-83
2021/12/04 03:51:07;;;;;;;10.48;5.90;;;4.40;99.90;;;;;;4949260;28;20050;-83
2021/12/04 03:53:34;;;;;;;11.10;6.03;;;4.40;99.90;;;;;;4963813;28;20113;-83
2021/12/04 03:55:59;;;;;;;10.65;5.82;;;4.40;99.90;;;;;;4929695;28;20094;-83
2021/12/04 03:58:25;;;;;;;12.00;6.25;;;4.40;99.90;;;;;;4948521;28;20456;-84
2021/12/04 04:00:51;;;;;;;9.95;5.65;;;4.40;99.90;;;;;;4946197;28;20053;-83
2021/12/04 04:03:17;;;;;;;10.00;5.88;;;4.40;99.90;;;;;;4948409;28;20115;-84
2021/12/04 04:05:42;;;;;;;10.45;6.00;;;4.40;99.90;;;;;;4948472;28;20931;-84
2021/12/04 04:08:11;;;;;;;9.02;5.50;;;4.40;99.90;;;;;;4948153;28;20130;-83
2021/12/04 04:10:37;;;;;;;9.80;5.88;;;4.40;99.90;;;;;;4926170;28;20035;-83
2021/12/04 04:13:02;;;;;;;10.27;5.47;;;4.40;99.90;;;;;;4923863;28;20043;-83
2021/12/04 04:15:28;;;;;;;8.43;4.53;;;4.40;99.90;;;;;;4930113;28;20594;-83
2021/12/04 04:17:53;;;;;;;10.23;5.53;;;4.40;99.90;;;;;;4942746;28;20046;-84
2021/12/04 04:20:21;;;;;;;10.35;5.63;;;4.40;99.90;;;;;;4928478;28;20102;-83
2021/12/04 04:22:48;;;;;;;11.40;6.28;;;4.40;99.90;;;;;;4946875;28;20460;-83
2021/12/04 04:25:16;;;;;;;9.25;5.53;;;4.40;99.90;;;;;;4946157;28;20058;-83
2021/12/04 04:27:42;;;;;;;11.18;6.32;;;4.40;99.90;;;;;;4944740;28;20035;-84
2021/12/04 04:30:15;;;;;;;10.45;5.35;;;4.40;99.90;;;;;;4932596;28;20034;-84
2021/12/04 04:32:42;;;;;;;8.98;5.13;;;4.40;99.90;;;;;;4947772;28;20058;-83
2021/12/04 04:35:13;;;;;;;9.07;5.53;;;4.40;99.90;;;;;;4946718;28;20054;-83
2021/12/04 04:37:51;;;;;;;10.10;5.90;;;4.40;99.90;;;;;;4947602;28;20035;-83
2021/12/04 05:00:10;;;;;;;12.45;6.10;;;4.50;99.90;;;;;;4945719;28;20050;-83
2021/12/04 05:12:58;;;;;;;10.93;5.93;;;4.40;99.90;;;;;;4951334;28;20465;-84
2021/12/04 05:15:43;;;;;;;12.85;6.18;;;4.50;99.90;;;;;;4945463;28;20058;-84
2021/12/04 05:18:20;;;;;;;14.18;7.05;;;4.50;99.90;;;;;;4943619;28;20473;-83
2021/12/04 05:21:04;;;;;;;12.27;6.65;;;4.50;99.90;;;;;;4923147;28;20047;-84
2021/12/04 05:23:40;;;;;;;12.68;6.68;;;4.50;99.90;;;;;;4946776;28;20051;-83
2021/12/04 05:26:08;;;;;;;13.07;6.40;;;4.50;99.90;;;;;;4935887;28;20039;-83
2021/12/04 05:28:34;;;;;;;13.07;6.85;;;4.50;99.90;;;;;;4947717;28;20038;-84
2021/12/04 05:31:00;;;;;;;14.15;6.57;;;4.50;99.90;;;;;;4926010;28;20030;-85
2021/12/04 05:33:26;;;;;;;12.50;7.32;;;4.50;99.90;;;;;;4947335;28;20042;-84
2021/12/04 05:35:52;;;;;;;12.52;7.05;;;4.50;99.90;;;;;;4949883;28;20053;-84
2021/12/04 05:38:18;;;;;;;20.83;8.68;;;4.50;99.90;;;;;;4927538;28;20090;-84
2021/12/04 05:40:44;;;;;;;14.77;7.35;;;4.50;99.90;;;;;;4943707;28;20038;-84
2021/12/04 05:43:11;;;;;;;13.70;7.30;;;4.50;99.90;;;;;;4949228;28;20404;-84
2021/12/04 05:45:46;;;;;;;13.50;7.10;;;4.50;99.90;;;;;;4948337;28;20043;-84
2021/12/04 05:48:20;;;;;;;18.38;7.78;;;4.50;99.90;;;;;;4933003;28;20125;-84
2021/12/04 05:55:52;;;;;;;15.32;7.10;;;4.40;99.90;;;;;;4942370;28;20356;-84
2021/12/04 05:58:30;;;;;;;17.42;7.90;;;4.50;99.90;;;;;;4950222;28;20069;-83
2021/12/04 06:00:59;;;;;;;15.30;7.82;;;4.50;99.90;;;;;;4966699;28;20074;-84
2021/12/04 06:03:25;;;;;;;16.92;7.70;;;4.50;99.90;;;;;;4931082;28;20051;-83
2021/12/04 06:05:51;;;;;;;20.23;8.40;;;4.40;99.90;;;;;;4927042;28;20044;-84
2021/12/04 06:08:19;;;;;;;11.40;6.13;;;4.50;99.90;;;;;;4967060;28;20035;-83
2021/12/04 06:10:45;;;;;;;14.63;7.25;;;4.50;99.90;;;;;;4933067;28;20045;-83
2021/12/04 06:13:11;;;;;;;19.33;8.63;;;4.50;99.90;;;;;;4951053;28;20503;-84
2021/12/04 06:15:36;;;;;;;14.55;7.07;;;4.40;99.90;;;;;;4950503;28;20042;-84
2021/12/04 06:18:02;;;;;;;17.48;8.00;;;4.50;99.90;;;;;;4949745;28;20074;-84
2021/12/04 06:23:13;;;;;;;20.30;9.32;;;4.50;99.90;;;;;;4949145;28;20046;-83
2021/12/04 06:25:39;;;;;;;17.67;9.18;;;4.50;99.90;;;;;;4954966;28;20039;-84
2021/12/04 06:28:05;;;;;;;17.75;8.52;;;4.50;99.90;;;;;;4948580;28;20080;-84
2021/12/04 06:30:38;;;;;;;20.45;8.00;;;4.50;99.90;;;;;;4947313;28;20062;-83
2021/12/04 06:33:06;;;;;;;18.85;8.40;;;4.50;99.90;;;;;;4932010;28;20078;-83
2021/12/04 06:35:33;;;;;;;19.60;9.05;;;4.50;99.90;;;;;;4950836;28;20760;-83
2021/12/04 06:38:00;;;;;;;21.92;9.35;;;4.50;99.90;;;;;;4982637;28;20407;-85
2021/12/04 06:40:27;;;;;;;23.02;9.13;;;4.50;99.90;;;;;;4945891;28;20092;-83
2021/12/04 06:42:57;;;;;;;20.33;9.27;;;4.50;99.90;;;;;;4930034;28;20044;-83
2021/12/04 06:45:25;;;;;;;21.92;8.85;;;4.50;99.90;;;;;;4925338;28;20042;-83
2021/12/04 06:48:03;;;;;;;17.77;7.68;;;4.50;99.90;;;;;;4947688;28;20050;-83
2021/12/04 06:50:50;;;;;;;24.05;9.38;;;4.50;99.90;;;;;;4946086;28;20046;-84
2021/12/04 06:55:45;;;;;;;25.05;9.40;;;4.50;99.90;;;;;;4966476;28;20058;-83
2021/12/04 06:58:11;;;;;;;23.63;10.10;;;4.50;99.90;;;;;;4924131;28;20445;-84
2021/12/04 07:00:37;;;;;;;21.77;8.20;;;4.50;99.90;;;;;;4949075;28;20038;-84
2021/12/04 07:03:03;;;;;;;24.58;9.95;;;4.50;99.90;;;;;;4949513;28;20195;-84
2021/12/04 07:05:28;;;;;;;25.98;9.55;;;4.50;99.90;;;;;;4959689;28;20047;-84
2021/12/04 07:07:54;;;;;;;21.13;9.23;;;4.50;99.90;;;;;;4945826;28;20035;-84
2021/12/04 07:10:20;;;;;;;19.67;7.82;;;4.50;99.90;;;;;;4948496;28;20074;-84
2021/12/04 07:12:45;;;;;;;21.38;8.93;;;4.50;99.90;;;;;;4944791;28;20043;-84
2021/12/04 07:15:12;;;;;;;27.05;9.52;;;4.50;99.90;;;;;;4928464;28;20387;-84
2021/12/04 07:17:38;;;;;;;32.83;9.35;;;4.50;99.90;;;;;;4933125;28;20042;-83
2021/12/04 07:20:05;;;;;;;25.65;9.48;;;4.50;99.90;;;;;;4951517;28;20134;-83
2021/12/04 07:22:31;;;;;;;25.67;8.90;;;4.50;99.90;;;;;;4944737;28;20039;-83
2021/12/04 07:24:57;;;;;;;27.50;9.07;;;4.50;99.90;;;;;;4945462;28;20039;-84
2021/12/04 07:27:23;;;;;;;32.28;10.23;;;4.50;99.90;;;;;;4944484;28;20038;-84
2021/12/04 07:29:49;;;;;;;25.67;9.25;;;4.50;99.90;;;;;;4929718;28;20046;-84
2021/12/04 07:32:15;;;;;;;28.40;10.10;;;4.50;99.90;;;;;;4929055;28;20039;-84
2021/12/04 07:34:41;;;;;;;25.23;9.25;;;4.50;99.90;;;;;;4946765;28;20436;-84
2021/12/04 07:37:06;;;;;;;25.88;8.88;;;4.50;99.90;;;;;;4947674;28;20051;-84
2021/12/04 07:39:32;;;;;;;26.42;10.30;;;4.40;99.90;;;;;;4944906;28;20552;-84
2021/12/04 07:41:57;;;;;;;37.80;10.05;;;4.40;99.90;;;;;;4930916;28;20035;-84
2021/12/04 07:44:23;;;;;;;28.25;8.63;;;4.50;99.90;;;;;;4940896;28;20042;-84
2021/12/04 07:46:49;;;;;;;29.25;10.13;;;4.50;99.90;;;;;;4943318;28;20035;-84
2021/12/04 07:49:14;;;;;;;26.73;9.32;;;4.50;99.90;;;;;;4946228;28;20055;-84
2021/12/04 07:51:40;;;;;;;31.27;10.02;;;4.40;99.90;;;;;;4950439;28;20035;-84
2021/12/04 07:54:06;;;;;;;29.13;10.52;;;4.40;99.90;;;;;;4932754;28;20049;-84
2021/12/04 07:56:32;;;;;;;21.88;9.13;;;4.40;99.90;;;;;;4943878;28;20039;-84
2021/12/04 07:58:58;;;;;;;26.90;10.05;;;4.40;99.90;;;;;;4943143;28;20043;-84
2021/12/04 08:01:24;;;;;;;33.20;10.68;;;4.40;99.90;;;;;;4945923;28;20047;-84
2021/12/04 08:03:50;;;;;;;22.13;8.93;;;4.50;99.90;;;;;;4945470;28;20057;-84
2021/12/04 08:06:16;;;;;;;27.30;10.35;;;4.50;99.90;;;;;;4943403;28;20051;-84
2021/12/04 08:08:41;;;;;;;28.70;10.73;;;4.50;99.90;;;;;;4950932;28;20455;-84
2021/12/04 08:11:07;;;;;;;30.73;10.13;;;4.50;99.90;;;;;;4951201;28;20034;-84
2021/12/04 08:13:33;;;;;;;28.35;9.35;;;4.50;99.90;;;;;;4925642;28;20416;-84
2021/12/04 08:15:58;;;;;;;38.90;12.50;;;4.50;99.90;;;;;;4946217;28;20492;-84
2021/12/04 08:18:25;;;;;;;31.67;10.88;;;4.50;99.90;;;;;;4930083;28;20469;-84
2021/12/04 08:20:52;;;;;;;27.38;10.25;;;4.50;99.90;;;;;;4949592;28;20047;-84
2021/12/04 08:23:18;;;;;;;37.35;10.65;;;4.50;99.90;;;;;;4951885;28;20444;-84
2021/12/04 08:25:46;;;;;;;34.00;11.70;;;4.50;99.90;;;;;;4946282;28;20154;-84
2021/12/04 08:28:12;;;;;;;37.20;9.77;;;4.50;99.90;;;;;;4949601;28;20523;-84
2021/12/04 08:30:40;;;;;;;34.53;11.88;;;4.50;99.90;;;;;;4949740;28;20144;-84
2021/12/04 08:33:08;;;;;;;39.33;11.50;;;4.50;99.90;;;;;;4930147;28;20041;-84
2021/12/04 08:35:39;;;;;;;45.20;11.02;;;4.50;99.90;;;;;;4943773;28;20452;-84
2021/12/04 08:38:06;;;;;;;40.85;11.30;;;4.50;99.90;;;;;;4948957;28;20053;-84
2021/12/04 08:40:31;;;;;;;35.28;9.77;;;4.50;99.90;;;;;;4929190;28;20047;-84
2021/12/04 08:42:57;;;;;;;42.97;11.13;;;4.50;99.90;;;;;;4948452;28;20047;-84
2021/12/04 08:45:23;;;;;;;39.38;11.05;;;4.50;99.90;;;;;;4949099;28;20039;-84
2021/12/04 08:47:49;;;;;;;44.75;12.68;;;4.50;99.90;;;;;;4950327;28;20097;-84
2021/12/04 08:50:18;;;;;;;31.17;10.05;;;4.50;99.90;;;;;;4944798;28;20121;-84
2021/12/04 08:52:44;;;;;;;41.80;12.25;;;4.60;99.90;;;;;;4947612;28;20062;-84
2021/12/04 08:55:11;;;;;;;36.55;10.93;;;4.60;99.90;;;;;;4947131;28;20379;-84
2021/12/04 08:57:37;;;;;;;33.33;10.68;;;4.50;99.90;;;;;;4948031;28;20030;-86
2021/12/04 09:00:08;;;;;;;34.67;10.80;;;4.50;99.90;;;;;;4946874;28;20071;-83
2021/12/04 09:02:34;;;;;;;30.25;10.07;;;4.50;99.90;;;;;;4945065;28;20409;-84
2021/12/04 09:05:00;;;;;;;28.40;9.35;;;4.60;99.90;;;;;;4927711;28;20496;-84
2021/12/04 09:07:26;;;;;;;29.60;9.90;;;4.50;99.90;;;;;;4935670;28;20058;-84
2021/12/04 09:09:55;;;;;;;30.27;10.40;;;4.60;99.90;;;;;;4932614;28;20093;-84
2021/12/04 09:12:23;;;;;;;24.95;9.77;;;4.60;99.90;;;;;;4944150;28;20053;-84
2021/12/04 09:14:50;;;;;;;23.67;8.73;;;4.60;99.90;;;;;;4927733;28;20108;-84
2021/12/04 09:17:18;;;;;;;27.98;9.32;;;4.60;99.90;;;;;;4929567;28;20043;-84
2021/12/04 09:19:43;;;;;;;31.90;10.07;;;4.60;99.90;;;;;;4950192;28;20046;-84
2021/12/04 09:22:16;;;;;;;25.48;9.35;;;4.60;99.90;;;;;;4931563;28;20111;-84
2021/12/04 09:24:44;;;;;;;31.30;10.80;;;4.70;99.90;;;;;;4928398;28;20070;-84
2021/12/04 10:02:42;;;;;;;30.15;10.38;;;4.90;99.90;;;;;;4952509;28;20451;-84
2021/12/04 10:05:32;;;;;;;30.15;10.73;;;4.90;99.90;;;;;;4945778;28;20051;-84
2021/12/04 10:19:13;;;;;;;27.38;11.05;;;5.00;99.90;;;;;;4949253;28;20530;-85
2021/12/04 10:34:56;;;;;;;32.25;11.05;;;5.00;99.90;;;;;;4949341;28;20381;-83
2021/12/04 10:37:25;;;;;;;27.17;9.75;;;5.00;99.90;;;;;;4945177;28;20034;-84
2021/12/04 10:40:09;;;;;;;28.65;10.32;;;5.00;99.90;;;;;;4943935;28;20101;-84
2021/12/04 10:42:50;;;;;;;27.25;10.68;;;5.00;99.90;;;;;;4939420;28;20031;-84
2021/12/04 10:45:16;;;;;;;28.75;10.73;;;5.00;99.90;;;;;;4948525;28;20554;-83
2021/12/04 10:47:54;;;;;;;26.25;11.68;;;5.10;99.90;;;;;;4949891;28;20440;-83
2021/12/04 10:53:01;;;;;;;31.63;10.27;;;5.10;99.90;;;;;;4948472;28;20070;-83
2021/12/04 10:55:37;;;;;;;24.67;9.82;;;5.10;99.90;;;;;;4949018;28;20551;-83
2021/12/04 11:00:58;;;;;;;28.08;11.40;;;5.10;99.90;;;;;;4952907;28;20113;-83
2021/12/04 11:03:48;;;;;;;28.90;10.00;;;5.10;99.90;;;;;;4947683;28;20062;-84
2021/12/04 11:39:54;;;;;;;29.20;11.38;;;5.20;99.90;;;;;;4952870;28;20042;-84
2021/12/04 11:45:03;;;;;;;25.52;9.93;;;5.30;99.90;;;;;;4947035;28;20059;-84
2021/12/04 11:47:41;;;;;;;25.08;9.68;;;5.30;99.90;;;;;;4947091;28;20110;-84
2021/12/04 11:50:15;;;;;;;24.90;10.00;;;5.30;99.90;;;;;;4952769;28;20073;-84
2021/12/04 11:52:51;;;;;;;23.30;9.18;;;5.30;99.90;;;;;;4934715;29;20046;-84
2021/12/04 11:55:20;;;;;;;22.10;8.65;;;5.30;99.90;;;;;;4947236;28;20448;-84
2021/12/04 11:57:46;;;;;;;23.10;9.00;;;5.30;99.90;;;;;;4951591;28;20042;-84
2021/12/04 12:00:18;;;;;;;21.20;8.32;;;5.30;99.90;;;;;;4947443;28;20042;-84
2021/12/04 12:02:44;;;;;;;25.63;10.10;;;5.30;99.90;;;;;;4952138;28;20062;-84
2021/12/04 12:05:17;;;;;;;25.83;10.00;;;5.40;99.90;;;;;;4946132;28;20043;-84
2021/12/04 12:07:54;;;;;;;24.73;9.70;;;5.40;99.90;;;;;;4931734;28;20424;-84
2021/12/04 12:10:21;;;;;;;26.00;9.60;;;5.40;99.90;;;;;;4947541;28;20082;-84
2021/12/04 12:12:48;;;;;;;24.40;8.35;;;5.40;99.90;;;;;;4948502;28;20425;-84
2021/12/04 12:15:24;;;;;;;27.42;10.07;;;5.30;99.90;;;;;;4949464;28;20050;-84
2021/12/04 12:17:51;;;;;;;23.27;10.23;;;5.30;99.90;;;;;;4930877;28;20039;-84
2021/12/04 12:20:35;;;;;;;24.35;9.25;;;5.30;99.90;;;;;;4948686;28;20109;-83
2021/12/04 12:23:05;;;;;;;31.27;10.90;;;5.30;99.90;;;;;;4950868;28;20042;-83
2021/12/04 12:37:17;;;;;;;29.23;9.68;;;5.30;99.90;;;;;;4941389;29;20043;-84
2021/12/04 12:40:04;;;;;;;22.45;8.35;;;5.30;99.90;;;;;;4945630;28;20039;-84
2021/12/04 12:42:34;;;;;;;21.02;8.20;;;5.30;99.90;;;;;;4949114;28;20050;-83
2021/12/04 12:45:14;;;;;;;22.42;8.15;;;5.30;99.90;;;;;;4949415;28;20052;-83
2021/12/04 12:47:51;;;;;;;20.38;8.50;;;5.30;99.90;;;;;;4951326;28;20050;-83
2021/12/04 12:50:31;;;;;;;23.08;9.25;;;5.30;99.90;;;;;;4935274;28;20511;-83
2021/12/04 12:53:10;;;;;;;22.42;8.50;;;5.40;99.90;;;;;;4950443;28;20120;-84
2021/12/04 12:55:37;;;;;;;20.05;8.13;;;5.30;99.90;;;;;;4943328;28;20051;-84
2021/12/04 12:58:25;;;;;;;18.52;8.60;;;5.30;99.90;;;;;;4963820;28;20051;-83
2021/12/04 13:12:12;;;;;;;22.60;8.95;;;5.30;99.90;;;;;;4951871;28;20043;-84
2021/12/04 13:14:41;;;;;;;24.75;9.20;;;5.30;99.90;;;;;;4940280;28;20548;-84
2021/12/04 13:17:10;;;;;;;26.98;9.90;;;5.30;99.90;;;;;;4952455;28;20043;-84
2021/12/04 13:19:38;;;;;;;26.48;10.60;;;5.30;99.90;;;;;;4938485;28;20300;-84
2021/12/04 13:22:09;;;;;;;22.23;10.00;;;5.30;99.90;;;;;;4953639;28;20070;-84
2021/12/04 13:24:37;;;;;;;25.42;10.25;;;5.30;99.90;;;;;;4933985;28;20046;-84
2021/12/04 13:29:38;;;;;;;20.33;8.23;;;5.30;99.90;;;;;;4951590;28;20074;-83
2021/12/04 13:32:05;;;;;;;24.00;9.55;;;5.30;99.90;;;;;;4937425;28;20384;-83
2021/12/04 13:34:31;;;;;;;25.58;11.23;;;5.30;99.90;;;;;;4971926;28;20511;-83
2021/12/04 13:37:01;;;;;;;26.60;10.73;;;5.30;99.90;;;;;;4933196;29;20125;-83
2021/12/04 13:39:27;;;;;;;24.73;11.00;;;5.30;99.90;;;;;;4951463;28;20043;-83
2021/12/04 13:41:54;;;;;;;26.23;10.40;;;5.30;99.90;;;;;;4952988;28;20428;-83
2021/12/04 13:44:23;;;;;;;26.05;10.88;;;5.30;99.90;;;;;;4971577;28;20043;-83
2021/12/04 13:46:52;;;;;;;28.55;10.52;;;5.30;99.90;;;;;;4939971;28;20089;-83
2021/12/04 13:49:22;;;;;;;32.17;11.35;;;5.30;99.90;;;;;;4949758;28;20551;-83
2021/12/04 13:51:56;;;;;;;30.98;11.13;;;5.30;99.90;;;;;;4954906;28;20090;-83
2021/12/04 13:54:24;;;;;;;25.73;10.68;;;5.30;99.90;;;;;;4950389;28;20050;-83
2021/12/04 13:56:50;;;;;;;30.33;11.27;;;5.30;99.90;;;;;;4954040;28;20039;-83
2021/12/04 13:59:21;;;;;;;23.13;10.20;;;5.30;99.90;;;;;;4955049;28;20465;-83
2021/12/04 14:01:47;;;;;;;26.83;11.25;;;5.30;99.90;;;;;;4950488;28;20047;-83
2021/12/04 14:04:16;;;;;;;27.48;10.68;;;5.30;99.90;;;;;;4936513;28;20093;-84
2021/12/04 14:06:54;;;;;;;27.55;12.00;;;5.30;99.90;;;;;;4967658;28;20197;-84
2021/12/04 14:09:23;;;;;;;30.02;12.00;;;5.30;99.90;;;;;;4937909;28;20027;-84
2021/12/04 14:11:50;;;;;;;31.98;10.90;;;5.30;99.90;;;;;;4948625;28;20039;-84
2021/12/04 14:14:22;;;;;;;28.60;11.10;;;5.30;99.90;;;;;;4951322;28;20046;-84
2021/12/04 14:16:51;;;;;;;33.88;13.73;;;5.30;99.90;;;;;;4949853;28;20045;-84
2021/12/04 14:19:27;;;;;;;29.02;11.77;;;5.20;99.90;;;;;;4951237;28;20134;-83
2021/12/04 14:22:07;;;;;;;31.23;11.73;;;5.30;99.90;;;;;;4950943;28;20041;-83
2021/12/04 14:24:42;;;;;;;31.10;11.82;;;5.20;99.90;;;;;;4948990;28;20038;-83
2021/12/04 14:27:10;;;;;;;34.95;13.73;;;5.20;99.90;;;;;;4932209;28;20034;-84
2021/12/04 14:29:39;;;;;;;30.70;13.07;;;5.30;99.90;;;;;;4955338;28;20493;-84
2021/12/04 14:32:05;;;;;;;30.25;11.25;;;5.30;99.90;;;;;;4936429;28;20109;-84
2021/12/04 14:34:32;;;;;;;31.00;11.70;;;5.20;99.90;;;;;;4953913;28;20489;-84
2021/12/04 14:37:15;;;;;;;25.27;10.82;;;5.30;99.90;;;;;;4952820;28;20066;-84
2021/12/04 14:39:48;;;;;;;27.00;11.98;;;5.20;99.90;;;;;;4955026;28;20506;-84
2021/12/04 14:42:21;;;;;;;26.45;10.15;;;5.20;99.90;;;;;;4939094;28;20118;-84
2021/12/04 14:44:51;;;;;;;24.20;9.77;;;5.20;99.90;;;;;;4948717;28;20075;-84
2021/12/04 14:47:19;;;;;;;23.75;10.50;;;5.30;99.90;;;;;;4953020;28;20118;-84
2021/12/04 14:49:48;;;;;;;24.75;10.32;;;5.20;99.90;;;;;;4951881;28;20042;-84
2021/12/04 14:52:24;;;;;;;24.25;9.25;;;5.30;99.90;;;;;;4952347;28;20094;-84
2021/12/04 14:54:51;;;;;;;22.67;10.55;;;5.30;99.90;;;;;;4965890;28;20039;-84
2021/12/04 14:57:24;;;;;;;25.38;8.95;;;5.30;99.90;;;;;;4952714;28;20049;-84
2021/12/04 15:00:13;;;;;;;19.60;9.02;;;5.30;99.90;;;;;;4936968;28;20043;-84
2021/12/04 15:02:39;;;;;;;20.88;9.23;;;5.30;99.90;;;;;;4936235;28;20059;-84
2021/12/04 15:05:06;;;;;;;20.08;8.70;;;5.30;99.90;;;;;;4959604;28;20108;-84
2021/12/04 15:07:34;;;;;;;18.58;8.57;;;5.30;99.90;;;;;;4949460;28;20050;-84
2021/12/04 15:10:20;;;;;;;17.20;8.20;;;5.20;99.90;;;;;;4943736;28;20043;-84
2021/12/04 15:12:45;;;;;;;21.90;8.77;;;5.20;99.90;;;;;;4935155;28;20404;-84
2021/12/04 15:15:12;;;;;;;24.48;10.00;;;5.30;99.90;;;;;;4951375;28;20046;-84
2021/12/04 15:17:41;;;;;;;20.58;9.27;;;5.30;99.90;;;;;;4950792;28;20058;-84
2021/12/04 15:20:12;;;;;;;21.30;9.40;;;5.20;99.90;;;;;;4952502;28;20150;-84
2021/12/04 15:22:44;;;;;;;20.55;8.77;;;5.20;99.90;;;;;;4932150;28;20073;-84
2021/12/04 15:25:13;;;;;;;20.80;9.40;;;5.20;99.90;;;;;;4947354;28;20065;-84
2021/12/04 15:27:39;;;;;;;23.67;10.13;;;5.20;99.90;;;;;;4949695;28;20446;-84
2021/12/04 15:30:09;;;;;;;19.08;8.90;;;5.20;99.90;;;;;;4953101;28;20046;-84
2021/12/04 15:32:38;;;;;;;20.90;9.13;;;5.20;99.90;;;;;;4947174;28;20155;-83
2021/12/04 15:35:34;;;;;;;18.73;8.75;;;5.20;99.90;;;;;;4929828;28;20042;-84
2021/12/04 15:38:07;;;;;;;19.83;7.25;;;5.20;99.90;;;;;;4931620;28;20125;-84
2021/12/04 15:41:08;;;;;;;20.00;8.90;;;5.20;99.90;;;;;;4931155;28;20047;-84
2021/12/04 15:46:12;;;;;;;;;;;5.20;99.90;;;;;;4952612;28;19981;-84
2021/12/04 15:54:16;;;;;;;22.33;9.13;;;5.10;99.90;;;;;;4944981;28;20062;-84
2021/12/04 15:56:46;;;;;;;22.83;8.90;;;5.10;99.90;;;;;;4948155;28;20039;-84
2021/12/04 15:59:22;;;;;;;21.20;9.48;;;5.20;99.90;;;;;;4933100;28;20165;-84
2021/12/04 16:01:52;;;;;;;29.70;12.95;;;5.20;99.90;;;;;;4963439;28;20612;-83
2021/12/04 16:04:30;;;;;;;40.72;16.27;;;5.20;99.90;;;;;;4947442;28;20149;-83
2021/12/04 16:06:59;;;;;;;55.30;25.58;;;5.10;99.90;;;;;;4934839;28;20071;-83
2021/12/04 16:09:25;;;;;;;60.25;26.20;;;5.10;99.90;;;;;;4946382;28;20125;-83
2021/12/04 16:11:58;;;;;;;58.42;25.58;;;5.20;99.90;;;;;;4947864;28;20038;-84